首页
METAR-TAF:

METAR-TAF

机场 :

Redwood Falls Municipal Airport

Redwood Falls, 明尼蘇達州, 美国

纬度: 44-32-50N, 经度: 095-04-56W, 海拔: 312米

当前天气观测

该预报发布于19分钟前的01:53 UTC
风速10节,风向南转南东
温度 4°C
湿度 65%
气压 1014 hPa
能見度: 16.1公里
多云层高于11000英尺

METAR: KRWF 170153Z AUTO 16010KT 10SM BKN110 04/M02 A2995 RMK AO2 SLP152 T00441017

时间: 20:12 (02:12 UTC)

预报

该预报发布于2小时和52分钟前的23:20 UTC
预报有效从17日的 00点(UTC)到 17日的 24点(UTC)
风速10节,风向
能見度: 10公里
散云层高于12000英尺
阴天层高于20000英尺
从 17日的 0400点(UTC)
风速9节,风向西转西南
能見度: 10公里
阴天层高于6000英尺
附近有阵雨
从 17日的 1000点(UTC)
风速10节,风向西转西北
能見度: 10公里
阴天层高于2500英尺

TAF: KRWF 162320Z 1700/1724 17010KT P6SM SCT120 OVC200 FM170400 24009KT P6SM VCSH OVC060 FM171000 30010KT P6SM OVC025

超过4000个机场的气象观测和天气预报(METAR&TAF报告)。

可查询的气象台以黄色和红色小点在地图上表示。

将鼠标移到小点上方,可查看气象台名称。

然后点击查看天气观测和预报。

如需切换地图:点击带黑十字的绿色按钮放大地图;点击带横线的绿色按钮缩小地图;或者点击绿色箭头查看邻近地区的地图。


METAR-TAF: